Country
Station

 

Weather  for  Farnborough  -  United Kingdom    United Kingdom

  
14 °C (57 °F)
    
 
 

Current METAR for Farnborough is :

EGLF 181450Z 06010KT 9999 FEW034 14/08 Q1026

 

This is a report for Farnborough - United Kingdom.
 
The report was made 8 minutes ago, at 14:50 UTC .
The wind was blowing at a speed of 5.1 meters per second (11.5 miles per hour) from east/northeast (060°).
 
The temperature was 14 °C (57 °F), with a dew-point at 8 °C (46 °F).
The atmospheric pressure was 1026 hPa (30.30 inHg).
The relative humidity was 67.1%.
 
There were a few clouds at a height of 1036 meters (3400 feet).
 
The overall visibility was greater than 10 kilometers (6.2 miles).
 

 
 
 
 

Country :   A   B   C   D   E   F   G   H   I   J   K   L   M   N   O   P   Q   R   S   T   U   V   W   Y   Z

 

Site Info  |  Disclaimer  |  Credits  |  Privacy
Contact us  |  Add to favorites
© 2013-2018 METARs - All rights reserved